National Weather Service Raw Text Product

Displaying AFOS PIL: TAFOTM Received: 2017-08-13 11:32 UTC


401 
FTUS43 KDMX 131132
TAFOTM
TAF
KOTM 131132Z 1312/1412 14006KT P6SM BKN150
     FM131800 16012KT P6SM SCT110=